Airfield :
LOGIN :

Register | Disclaimer

   EN    FR    IT 

 










Legend :    VFR   Marginal VFR   IFR   Intensive IFR   Very Intensive IFR
Visi :
Ceiling :
>= 8 km
>= 3000ft
5 to 8 km
1000 to 3000 ft
1500m to 5 km
500 to 1000 ft
800 to 1500m
200 to 500 ft
< 800m
< 200 ft
Symbols :   Thunderstorms  Fog  Heavy snow  Heavy precipitations  Wind > 20 kt
SIGMETs :     Misc.  Thunderstorms  Icing  Turbulence  Mountain Waves  Volcanic Ashes







- Airport Elevation : 56 ft
- IATA code : BZR
- Download approach charts


LFMU - Beziers / Vias

CURRENT METAR :
  • 212330Z AUTO 05011KT 9999 OVC009 18/17 Q1013

EXPIRED METARs :
  • 212300Z AUTO 04009KT 9999 -DZ OVC009 18/17 Q1013
  • 212230Z AUTO 06010KT 6000 -DZ BKN007 OVC011 18/17 Q1013
  • 212200Z AUTO 06009KT 8000 -DZ OVC012 18/17 Q1013
  • 212130Z AUTO 10010KT 6000 -DZ OVC015 20/18 Q1013
  • 212100Z AUTO 10011KT 9999 BKN013 OVC029 20/18 Q1014

TAF TAF LFMU
Valid from the 21 at 15:00 until the 22 at 15:00 UTC


211400Z 2115/2215 10012KT 9999 BKN020
TEMPO 2115/2215 VRB15G25KT SHRA BKN010TCU
ATIS : +33 4 67 90 88 88
No reported NOTAMs for that airfield.



MET'MAP, your aeronautical weather chart ! - Copyright ORBIFLY December 2007 - Disclaimer

ORBIFLY MET'MAP TEAM :

Programming & Development : Alexandra Zaïnal
Concept & Development : Baudouin d'Aumeries
Co-Development & Prog : Marc-Olivier Méhu
Technical & hardware support : Manuel Goepfert

Contact : metmap@orbifly.com




SOURCES & CREDITS :

   NOAA